createdAt,value
2022-09-12T00:00:14.260Z,19.73
2022-09-12T00:02:15.810Z,19.71
2022-09-12T00:04:17.508Z,19.73
2022-09-12T00:06:23.330Z,19.74
2022-09-12T00:08:24.950Z,19.69
2022-09-12T00:10:26.919Z,19.70
2022-09-12T00:12:28.434Z,19.72
2022-09-12T00:14:30.038Z,19.74
2022-09-12T00:16:35.676Z,19.78
2022-09-12T00:18:37.249Z,19.68
2022-09-12T00:20:41.874Z,19.63
2022-09-12T00:22:43.456Z,19.66
2022-09-12T00:24:45.204Z,19.63
2022-09-12T00:26:47.142Z,19.65
2022-09-12T00:28:48.682Z,19.69
2022-09-12T00:30:50.571Z,19.73
2022-09-12T00:32:53.371Z,19.70
2022-09-12T00:34:54.890Z,19.69
2022-09-12T00:36:56.339Z,19.68
2022-09-12T00:38:58.122Z,19.63
2022-09-12T00:40:59.655Z,19.57
2022-09-12T00:43:01.204Z,19.60
2022-09-12T00:45:02.872Z,19.60
2022-09-12T00:47:10.421Z,19.60
2022-09-12T00:49:18.637Z,19.57
2022-09-12T00:51:20.682Z,19.60
2022-09-12T00:53:22.507Z,19.62
2022-09-12T00:55:26.455Z,19.60
2022-09-12T00:57:32.157Z,19.57
2022-09-12T00:59:39.251Z,19.58
2022-09-12T01:01:42.903Z,19.54
2022-09-12T01:03:44.826Z,19.54
2022-09-12T01:05:58.944Z,19.53
2022-09-12T01:08:02.261Z,19.52
2022-09-12T01:10:05.015Z,19.41
2022-09-12T01:12:06.652Z,19.41
2022-09-12T01:14:08.925Z,19.39
2022-09-12T01:16:10.520Z,19.37
2022-09-12T01:18:20.668Z,19.37
2022-09-12T01:20:41.363Z,19.38
2022-09-12T01:23:11.625Z,19.43
2022-09-12T01:25:27.372Z,19.41
2022-09-12T01:27:46.050Z,19.38
2022-09-12T01:30:24.187Z,19.37
2022-09-12T01:32:40.580Z,19.37
2022-09-12T01:34:49.278Z,19.37
2022-09-12T01:37:04.585Z,19.41
2022-09-12T01:39:16.007Z,19.35
2022-09-12T01:41:25.963Z,19.37
2022-09-12T01:43:34.400Z,19.29
2022-09-12T01:45:44.462Z,19.21
2022-09-12T01:47:51.845Z,19.21
2022-09-12T01:50:00.452Z,19.20
2022-09-12T01:52:09.220Z,19.09
2022-09-12T01:54:16.594Z,19.06
2022-09-12T01:56:21.948Z,19.03
2022-09-12T01:58:28.596Z,19.08
2022-09-12T02:00:32.655Z,19.03
2022-09-12T02:02:39.051Z,19.00
2022-09-12T02:04:48.634Z,18.99
2022-09-12T02:06:54.582Z,18.96
2022-09-12T02:09:00.371Z,18.90
2022-09-12T02:11:06.937Z,18.98
2022-09-12T02:13:14.885Z,18.84
2022-09-12T02:15:20.563Z,18.87
2022-09-12T02:17:24.464Z,18.80
2022-09-12T02:19:31.308Z,18.74
2022-09-12T02:21:38.469Z,18.65
2022-09-12T02:23:45.777Z,18.61
2022-09-12T02:25:50.661Z,18.62
2022-09-12T02:27:57.380Z,18.70
2022-09-12T02:29:59.859Z,18.75
2022-09-12T02:32:05.985Z,18.84
2022-09-12T02:34:11.944Z,18.75
2022-09-12T02:36:23.280Z,18.73
2022-09-12T02:38:30.915Z,18.60
2022-09-12T02:40:34.673Z,18.62
2022-09-12T02:42:36.829Z,18.64
2022-09-12T02:44:38.341Z,18.58
2022-09-12T02:46:44.324Z,18.59
2022-09-12T02:48:45.918Z,18.66
2022-09-12T02:50:47.625Z,18.71
2022-09-12T02:52:50.286Z,18.77
2022-09-12T02:54:55.052Z,18.72
2022-09-12T02:56:56.638Z,18.74
2022-09-12T02:59:02.504Z,18.68
2022-09-12T03:01:14.381Z,18.76
2022-09-12T03:03:47.473Z,18.73
2022-09-12T03:05:57.393Z,18.72
2022-09-12T03:08:22.349Z,18.72
2022-09-12T03:10:32.946Z,18.62
2022-09-12T03:12:47.211Z,18.61
2022-09-12T03:15:04.950Z,18.55
2022-09-12T03:17:14.398Z,18.58
2022-09-12T03:19:25.315Z,18.56
2022-09-12T03:21:33.142Z,18.52
2022-09-12T03:23:39.460Z,18.42
2022-09-12T03:25:48.659Z,18.45
2022-09-12T03:27:57.255Z,18.49
2022-09-12T03:30:00.074Z,18.54
2022-09-12T03:32:01.992Z,18.49
2022-09-12T03:34:03.668Z,18.42
2022-09-12T03:36:05.506Z,18.43
2022-09-12T03:38:07.058Z,18.45
2022-09-12T03:40:10.460Z,18.40
2022-09-12T03:42:13.377Z,18.43
2022-09-12T03:44:15.301Z,18.46
2022-09-12T03:46:16.937Z,18.48
2022-09-12T03:48:18.434Z,18.42
2022-09-12T03:50:19.981Z,18.42
2022-09-12T03:52:21.509Z,18.42
2022-09-12T03:54:23.372Z,18.43
2022-09-12T03:56:24.862Z,18.50
2022-09-12T03:58:30.826Z,18.37
2022-09-12T04:00:32.318Z,18.38
2022-09-12T04:02:33.851Z,18.31
2022-09-12T04:04:35.621Z,18.29
2022-09-12T04:06:37.117Z,18.28
2022-09-12T04:08:38.975Z,18.29
2022-09-12T04:10:40.557Z,18.29
2022-09-12T04:12:42.326Z,18.35
2022-09-12T04:14:45.176Z,18.40
2022-09-12T04:16:46.755Z,18.31
2022-09-12T04:18:48.505Z,18.34
2022-09-12T04:20:50.102Z,18.37
2022-09-12T04:22:51.838Z,18.34
2022-09-12T04:24:53.474Z,18.32
2022-09-12T04:26:55.495Z,18.24
2022-09-12T04:28:57.303Z,18.26
2022-09-12T04:31:04.293Z,18.24
2022-09-12T04:33:08.453Z,18.21
2022-09-12T04:35:10.070Z,18.04
2022-09-12T04:37:11.555Z,17.87
2022-09-12T04:39:13.063Z,17.87
2022-09-12T04:41:16.200Z,17.92
2022-09-12T04:43:17.690Z,17.97
2022-09-12T04:45:19.209Z,17.89
2022-09-12T04:47:22.093Z,17.89
2022-09-12T04:49:23.589Z,17.83
2022-09-12T04:51:27.980Z,17.86
2022-09-12T04:53:29.632Z,17.90
2022-09-12T04:55:33.989Z,17.82
2022-09-12T04:57:35.876Z,17.73
2022-09-12T04:59:38.646Z,17.76
2022-09-12T05:01:40.410Z,17.79
2022-09-12T05:03:44.346Z,17.82
2022-09-12T05:05:45.879Z,17.90
2022-09-12T05:07:47.418Z,17.96
2022-09-12T05:09:48.939Z,17.89
2022-09-12T05:12:06.056Z,17.95
2022-09-12T05:14:07.604Z,18.00
2022-09-12T05:16:11.656Z,17.96
2022-09-12T05:18:13.265Z,17.88
2022-09-12T05:20:16.265Z,17.83
2022-09-12T05:22:17.779Z,17.78
2022-09-12T05:24:19.412Z,17.73
2022-09-12T05:26:21.447Z,17.72
2022-09-12T05:28:24.113Z,17.82
2022-09-12T05:30:25.706Z,17.86
2022-09-12T05:32:31.151Z,17.93
2022-09-12T05:34:32.653Z,17.95
2022-09-12T05:36:36.124Z,17.92
2022-09-12T05:38:37.805Z,17.91
2022-09-12T05:40:39.320Z,17.91
2022-09-12T05:42:41.086Z,17.94
2022-09-12T05:44:42.581Z,17.96
2022-09-12T05:46:45.270Z,17.96
2022-09-12T05:48:48.686Z,18.01
2022-09-12T05:50:51.330Z,18.02
2022-09-12T05:52:54.260Z,18.06
2022-09-12T05:54:55.805Z,18.08
2022-09-12T05:56:57.333Z,17.99
2022-09-12T05:59:00.620Z,18.02
2022-09-12T06:01:04.229Z,18.02
2022-09-12T06:03:05.930Z,18.07
2022-09-12T06:05:07.892Z,18.06
2022-09-12T06:07:09.438Z,18.12
2022-09-12T06:09:13.862Z,19.01
2022-09-12T06:11:17.882Z,19.06
2022-09-12T06:13:19.625Z,18.98
2022-09-12T06:15:21.145Z,18.83
2022-09-12T06:17:22.716Z,18.74
2022-09-12T06:19:24.244Z,18.59
2022-09-12T06:21:26.628Z,18.52
2022-09-12T06:23:28.157Z,18.51
2022-09-12T06:25:31.048Z,18.52
2022-09-12T06:27:32.542Z,18.52
2022-09-12T06:29:34.094Z,18.48
2022-09-12T06:31:36.990Z,18.57
2022-09-12T06:33:40.572Z,18.56
2022-09-12T06:35:42.334Z,18.55
2022-09-12T06:37:44.306Z,18.56
2022-09-12T06:39:46.958Z,18.56
2022-09-12T06:41:51.205Z,18.56
2022-09-12T06:43:53.580Z,18.60
2022-09-12T06:45:55.202Z,18.57
2022-09-12T06:47:56.741Z,18.66
2022-09-12T06:49:58.349Z,18.72
2022-09-12T06:51:59.825Z,18.83
2022-09-12T06:54:01.959Z,18.78
2022-09-12T06:56:06.306Z,18.83
2022-09-12T06:58:09.331Z,18.93
2022-09-12T07:00:12.116Z,18.96
2022-09-12T07:02:13.716Z,19.04
2022-09-12T07:04:15.284Z,19.08
2022-09-12T07:06:18.869Z,19.14
2022-09-12T07:08:20.508Z,19.21
2022-09-12T07:10:22.492Z,19.35
2022-09-12T07:12:24.065Z,19.41
2022-09-12T07:14:27.212Z,19.55
2022-09-12T07:16:29.219Z,19.63
2022-09-12T07:18:31.684Z,19.73
2022-09-12T07:20:33.340Z,19.88
2022-09-12T07:22:34.921Z,20.01
2022-09-12T07:24:36.483Z,20.15
2022-09-12T07:26:39.293Z,20.23
2022-09-12T07:28:40.947Z,20.37
2022-09-12T07:30:43.907Z,20.53
2022-09-12T07:32:46.735Z,20.62
2022-09-12T07:34:48.235Z,20.66
2022-09-12T07:36:49.716Z,20.70
2022-09-12T07:38:57.221Z,20.84
2022-09-12T07:40:59.247Z,20.92
2022-09-12T07:43:00.971Z,20.99
2022-09-12T07:45:02.713Z,21.11
2022-09-12T07:47:06.042Z,21.18
2022-09-12T07:49:08.553Z,21.28
2022-09-12T07:51:11.884Z,21.37
2022-09-12T07:53:13.539Z,21.46
2022-09-12T07:55:15.294Z,21.50
2022-09-12T07:57:16.851Z,21.52
2022-09-12T07:59:30.205Z,21.62
2022-09-12T08:01:42.934Z,21.67
2022-09-12T08:03:47.911Z,21.76
2022-09-12T08:05:49.499Z,21.84
2022-09-12T08:07:53.634Z,21.89
2022-09-12T08:09:58.879Z,21.97
2022-09-12T08:12:00.529Z,21.99
2022-09-12T08:14:02.238Z,22.05
2022-09-12T08:16:05.765Z,22.09
2022-09-12T08:18:07.300Z,22.12
2022-09-12T08:20:10.412Z,22.13
2022-09-12T08:22:12.094Z,22.13
2022-09-12T08:24:14.084Z,22.09
2022-09-12T08:26:15.618Z,22.14
2022-09-12T08:28:17.260Z,22.13
2022-09-12T08:30:18.772Z,22.10
2022-09-12T08:32:20.323Z,22.17
2022-09-12T08:34:21.864Z,22.14
2022-09-12T08:36:26.983Z,22.17
2022-09-12T08:38:29.695Z,22.07
2022-09-12T08:40:33.142Z,22.16
2022-09-12T08:42:48.573Z,22.14
2022-09-12T08:45:05.116Z,22.18
2022-09-12T08:47:28.747Z,22.19
2022-09-12T08:49:33.526Z,22.20
2022-09-12T08:51:36.993Z,22.28
2022-09-12T08:53:39.347Z,22.22
2022-09-12T08:55:43.660Z,22.28
2022-09-12T08:57:45.698Z,22.34
2022-09-12T08:59:47.254Z,22.39
2022-09-12T09:01:52.230Z,22.46
2022-09-12T09:04:09.184Z,22.52
2022-09-12T09:06:21.487Z,22.55
2022-09-12T09:08:42.676Z,22.58
2022-09-12T09:10:49.455Z,22.64
2022-09-12T09:12:56.937Z,22.69
2022-09-12T09:15:13.014Z,22.79
2022-09-12T09:17:19.884Z,22.82
2022-09-12T09:19:25.786Z,22.81
2022-09-12T09:21:32.368Z,22.89
2022-09-12T09:23:40.786Z,22.90
2022-09-12T09:25:50.717Z,22.98
2022-09-12T09:27:58.256Z,23.05
2022-09-12T09:30:00.862Z,23.08
2022-09-12T09:32:10.418Z,23.12
2022-09-12T09:34:16.718Z,23.14
2022-09-12T09:36:21.763Z,23.18
2022-09-12T09:38:28.993Z,23.21
2022-09-12T09:40:44.336Z,23.30
2022-09-12T09:42:56.469Z,23.25
2022-09-12T09:45:02.862Z,23.23
2022-09-12T09:47:05.020Z,23.30
2022-09-12T09:49:10.681Z,23.35
2022-09-12T09:51:15.135Z,23.58
2022-09-12T09:53:28.904Z,23.59
2022-09-12T09:55:38.491Z,23.58
2022-09-12T09:57:42.042Z,23.55
2022-09-12T09:59:46.424Z,23.60
2022-09-12T10:01:51.424Z,23.65
2022-09-12T10:03:54.452Z,23.69
2022-09-12T10:06:00.037Z,23.73
2022-09-12T10:08:10.066Z,23.78
2022-09-12T10:10:16.892Z,23.72
2022-09-12T10:12:27.903Z,23.78
2022-09-12T10:14:38.651Z,23.88
2022-09-12T10:16:50.047Z,23.93
2022-09-12T10:18:53.155Z,23.96
2022-09-12T10:20:54.722Z,24.04
2022-09-12T10:22:56.565Z,24.05
2022-09-12T10:25:00.607Z,24.06
2022-09-12T10:27:09.474Z,24.09
2022-09-12T10:29:17.623Z,24.12
2022-09-12T10:31:26.442Z,24.08
2022-09-12T10:33:29.323Z,24.10
2022-09-12T10:35:42.482Z,24.16
2022-09-12T10:37:53.189Z,24.17
2022-09-12T10:39:57.050Z,24.23
2022-09-12T10:41:58.869Z,24.37
2022-09-12T10:44:07.286Z,24.45
2022-09-12T10:46:28.405Z,24.52
2022-09-12T10:48:31.815Z,24.57
2022-09-12T10:50:39.332Z,24.63
2022-09-12T10:52:40.890Z,24.64
2022-09-12T10:54:42.860Z,24.67
2022-09-12T10:56:53.359Z,24.72
2022-09-12T10:59:18.091Z,24.78
2022-09-12T11:01:37.200Z,24.79
2022-09-12T11:03:59.935Z,24.85
2022-09-12T11:06:01.943Z,24.89
2022-09-12T11:08:16.398Z,24.92
2022-09-12T11:10:37.359Z,24.88
2022-09-12T11:12:49.196Z,24.91
2022-09-12T11:15:03.297Z,24.98
2022-09-12T11:17:19.446Z,25.02
2022-09-12T11:19:56.712Z,25.09
2022-09-12T11:22:10.388Z,25.31
2022-09-12T11:24:56.420Z,25.72
2022-09-12T11:27:10.685Z,26.00
2022-09-12T11:29:20.890Z,25.97
2022-09-12T11:31:39.313Z,25.79
2022-09-12T11:33:44.934Z,25.67
2022-09-12T11:35:54.443Z,25.59
2022-09-12T11:38:14.214Z,25.59
2022-09-12T11:40:29.372Z,25.60
2022-09-12T11:42:36.707Z,25.83
2022-09-12T11:44:43.285Z,26.21
2022-09-12T11:46:48.744Z,26.78
2022-09-12T11:49:01.092Z,27.17
2022-09-12T11:51:07.496Z,27.19
2022-09-12T11:53:16.908Z,27.31
2022-09-12T11:55:22.876Z,27.34
2022-09-12T11:57:33.785Z,27.44
2022-09-12T11:59:44.442Z,27.73
2022-09-12T12:01:51.452Z,28.07
2022-09-12T12:03:53.079Z,28.25
2022-09-12T12:06:01.249Z,28.38
2022-09-12T12:08:06.698Z,28.56
2022-09-12T12:10:23.199Z,28.70
2022-09-12T12:12:28.747Z,28.94
2022-09-12T12:14:37.776Z,29.25
2022-09-12T12:16:40.895Z,29.09
2022-09-12T12:18:44.447Z,29.08
2022-09-12T12:20:46.723Z,29.21
2022-09-12T12:22:53.652Z,29.08
2022-09-12T12:25:05.950Z,28.98
2022-09-12T12:27:25.170Z,28.92
2022-09-12T12:29:42.996Z,28.85
2022-09-12T12:32:19.487Z,28.64
2022-09-12T12:34:28.607Z,28.46
2022-09-12T12:36:41.408Z,28.33
2022-09-12T12:38:44.655Z,27.91
2022-09-12T12:40:48.217Z,27.78
2022-09-12T12:43:04.823Z,27.68
2022-09-12T12:45:49.772Z,27.52
2022-09-12T12:47:53.608Z,27.36
2022-09-12T12:49:59.342Z,27.28
2022-09-12T12:52:02.104Z,27.18
2022-09-12T12:54:26.648Z,27.08
2022-09-12T12:56:40.234Z,26.94
2022-09-12T12:58:42.827Z,26.85
2022-09-12T13:00:46.378Z,26.79
2022-09-12T13:02:52.803Z,26.72
2022-09-12T13:04:56.083Z,26.73
2022-09-12T13:07:07.207Z,26.66
2022-09-12T13:09:25.785Z,26.70
2022-09-12T13:11:32.667Z,26.65
2022-09-12T13:13:38.183Z,26.61
2022-09-12T13:15:51.203Z,26.63
2022-09-12T13:17:52.994Z,26.59
2022-09-12T13:20:26.101Z,26.58
2022-09-12T13:22:25.418Z,26.56
2022-09-12T13:24:28.572Z,26.57
2022-09-12T13:26:34.487Z,26.56
2022-09-12T13:28:36.046Z,26.60
2022-09-12T13:30:40.809Z,26.61
2022-09-12T13:32:43.502Z,26.62
2022-09-12T13:35:01.006Z,26.62
2022-09-12T13:37:26.065Z,26.60
2022-09-12T13:39:35.789Z,26.53
2022-09-12T13:42:03.948Z,26.54
2022-09-12T13:44:10.002Z,26.48
2022-09-12T13:46:15.891Z,26.49
2022-09-12T13:48:21.574Z,26.44
2022-09-12T13:50:25.299Z,26.44
2022-09-12T13:52:31.844Z,26.52
2022-09-12T13:54:38.125Z,26.54
2022-09-12T13:56:47.542Z,26.54
2022-09-12T13:58:53.922Z,26.51
2022-09-12T14:01:07.505Z,26.54
2022-09-12T14:03:26.839Z,26.46
2022-09-12T14:05:28.400Z,26.49
2022-09-12T14:07:31.942Z,26.51
2022-09-12T14:09:39.987Z,26.48
2022-09-12T14:11:41.988Z,26.44
2022-09-12T14:13:43.680Z,26.40
2022-09-12T14:15:49.005Z,26.37
2022-09-12T14:17:52.964Z,26.40
2022-09-12T14:19:54.617Z,26.39
2022-09-12T14:21:56.892Z,26.40
2022-09-12T14:23:58.842Z,26.42
2022-09-12T14:26:04.865Z,26.35
2022-09-12T14:28:06.557Z,26.32
2022-09-12T14:30:21.413Z,26.37
2022-09-12T14:32:24.719Z,26.39
2022-09-12T14:34:26.209Z,26.42
2022-09-12T14:36:32.656Z,26.50
2022-09-12T14:38:37.639Z,26.60
2022-09-12T14:40:44.751Z,26.65
2022-09-12T14:42:49.964Z,26.55
2022-09-12T14:44:56.454Z,26.52
2022-09-12T14:47:10.193Z,26.52
2022-09-12T14:49:16.990Z,26.47
2022-09-12T14:51:22.361Z,26.45
2022-09-12T14:53:30.452Z,26.45
2022-09-12T14:55:34.258Z,26.49
2022-09-12T14:57:38.343Z,26.49
2022-09-12T14:59:41.310Z,26.49
2022-09-12T15:01:42.976Z,26.42
2022-09-12T15:03:50.445Z,26.41
2022-09-12T15:05:52.217Z,26.46
2022-09-12T15:08:01.261Z,26.47
2022-09-12T15:10:05.360Z,26.40
2022-09-12T15:12:09.409Z,26.38
2022-09-12T15:14:13.622Z,26.36
2022-09-12T15:16:16.686Z,26.39
2022-09-12T15:18:19.269Z,26.36
2022-09-12T15:20:20.912Z,26.34
2022-09-12T15:22:24.384Z,26.33
2022-09-12T15:24:26.018Z,26.38
2022-09-12T15:26:28.887Z,26.39
2022-09-12T15:28:31.466Z,26.37
2022-09-12T15:30:32.970Z,26.40
2022-09-12T15:32:37.225Z,26.38
2022-09-12T15:34:38.717Z,26.36
2022-09-12T15:36:40.249Z,26.34
2022-09-12T15:38:42.799Z,26.38
2022-09-12T15:40:44.440Z,26.38
2022-09-12T15:42:45.982Z,26.34
2022-09-12T15:44:47.515Z,26.28
2022-09-12T15:46:49.265Z,26.26
2022-09-12T15:48:52.175Z,26.23
2022-09-12T15:50:53.691Z,26.18
2022-09-12T15:52:55.572Z,26.20
2022-09-12T15:54:57.447Z,26.23
2022-09-12T15:56:59.083Z,26.21
2022-09-12T15:59:00.632Z,26.16
2022-09-12T16:01:02.278Z,26.13
2022-09-12T16:03:04.444Z,26.11
2022-09-12T16:05:16.259Z,26.06
2022-09-12T16:07:17.958Z,26.07
2022-09-12T16:09:19.774Z,26.08
2022-09-12T16:11:23.899Z,26.11
2022-09-12T16:13:26.363Z,26.10
2022-09-12T16:15:27.934Z,26.16
2022-09-12T16:17:29.517Z,26.15
2022-09-12T16:19:31.367Z,26.22
2022-09-12T16:21:34.462Z,26.24
2022-09-12T16:23:36.336Z,26.19
2022-09-12T16:25:37.989Z,26.23
2022-09-12T16:27:39.741Z,26.29
2022-09-12T16:29:41.272Z,26.22
2022-09-12T16:31:42.864Z,26.17
2022-09-12T16:33:44.551Z,26.15
2022-09-12T16:35:46.234Z,26.12
2022-09-12T16:37:49.590Z,26.15
2022-09-12T16:39:51.170Z,26.20
2022-09-12T16:41:52.829Z,26.27
2022-09-12T16:43:55.224Z,26.35
2022-09-12T16:46:04.384Z,26.41
2022-09-12T16:48:06.104Z,26.45
2022-09-12T16:50:08.556Z,26.47
2022-09-12T16:52:10.781Z,26.48
2022-09-12T16:54:13.865Z,26.51
2022-09-12T16:56:15.548Z,26.54
2022-09-12T16:58:17.116Z,26.56
2022-09-12T17:00:18.875Z,26.56
2022-09-12T17:02:20.448Z,26.57
2022-09-12T17:04:23.703Z,26.55
2022-09-12T17:06:26.546Z,26.48
2022-09-12T17:08:28.208Z,26.52
2022-09-12T17:10:31.308Z,26.56
2022-09-12T17:12:33.017Z,26.53
2022-09-12T17:14:34.538Z,26.48
2022-09-12T17:16:38.154Z,26.44
2022-09-12T17:18:39.982Z,26.47
2022-09-12T17:20:41.480Z,26.51
2022-09-12T17:22:43.111Z,26.42
2022-09-12T17:24:44.673Z,26.35
2022-09-12T17:26:47.784Z,26.31
2022-09-12T17:28:49.609Z,26.37
2022-09-12T17:30:55.430Z,26.41
2022-09-12T17:32:56.994Z,26.44
2022-09-12T17:34:59.032Z,26.46
2022-09-12T17:37:00.850Z,26.46
2022-09-12T17:39:03.578Z,26.48
2022-09-12T17:41:06.778Z,26.49
2022-09-12T17:43:10.317Z,26.47
2022-09-12T17:45:17.727Z,26.44
2022-09-12T17:47:20.242Z,26.44
2022-09-12T17:49:21.858Z,26.44
2022-09-12T17:51:24.806Z,26.44
2022-09-12T17:53:26.801Z,26.38
2022-09-12T17:55:28.749Z,26.34
2022-09-12T17:57:30.329Z,26.33
2022-09-12T17:59:33.427Z,26.24
2022-09-12T18:01:35.496Z,26.18
2022-09-12T18:03:37.056Z,26.15
2022-09-12T18:05:45.921Z,26.15
2022-09-12T18:07:47.565Z,26.13
2022-09-12T18:09:50.630Z,25.93
2022-09-12T18:11:53.527Z,25.91
2022-09-12T18:13:55.134Z,25.88
2022-09-12T18:16:04.129Z,25.91
2022-09-12T18:18:06.209Z,25.93
2022-09-12T18:20:08.538Z,25.91
2022-09-12T18:22:10.069Z,25.79
2022-09-12T18:24:12.279Z,25.63
2022-09-12T18:26:14.947Z,25.56
2022-09-12T18:28:16.686Z,25.48
2022-09-12T18:30:21.614Z,25.41
2022-09-12T18:32:25.013Z,25.37
2022-09-12T18:34:26.957Z,25.35
2022-09-12T18:36:31.763Z,25.38
2022-09-12T18:38:33.341Z,25.29
2022-09-12T18:40:35.113Z,25.20
2022-09-12T18:42:36.662Z,25.22
2022-09-12T18:44:38.248Z,25.22
2022-09-12T18:46:40.208Z,25.13
2022-09-12T18:48:44.238Z,25.08
2022-09-12T18:50:45.970Z,25.14
2022-09-12T18:52:47.886Z,25.07
2022-09-12T18:54:49.511Z,24.99
2022-09-12T18:56:50.988Z,24.92
2022-09-12T18:58:55.099Z,24.88
2022-09-12T19:00:57.577Z,24.84
2022-09-12T19:02:59.259Z,24.92
2022-09-12T19:05:05.245Z,24.90
2022-09-12T19:07:06.892Z,24.85
2022-09-12T19:09:09.409Z,24.73
2022-09-12T19:11:11.344Z,24.68
2022-09-12T19:13:12.890Z,24.69
2022-09-12T19:15:14.512Z,24.65
2022-09-12T19:17:16.294Z,24.61
2022-09-12T19:19:18.056Z,24.59
2022-09-12T19:21:22.583Z,24.56
2022-09-12T19:23:25.047Z,24.53
2022-09-12T19:25:27.014Z,24.49
2022-09-12T19:27:28.835Z,24.42
2022-09-12T19:29:30.946Z,24.44
2022-09-12T19:31:33.084Z,24.35
2022-09-12T19:33:35.114Z,24.29
2022-09-12T19:35:37.068Z,24.32
2022-09-12T19:37:40.203Z,24.32
2022-09-12T19:39:41.867Z,24.22
2022-09-12T19:41:44.520Z,24.17
2022-09-12T19:43:46.452Z,24.14
2022-09-12T19:45:48.360Z,24.12
2022-09-12T19:47:49.950Z,24.07
2022-09-12T19:49:51.674Z,24.09
2022-09-12T19:51:53.605Z,24.05
2022-09-12T19:53:56.755Z,23.99
2022-09-12T19:55:59.632Z,23.95
2022-09-12T19:58:01.239Z,23.93
2022-09-12T20:00:03.975Z,23.91
2022-09-12T20:02:05.696Z,23.84
2022-09-12T20:04:07.278Z,23.81
2022-09-12T20:06:10.186Z,23.86
2022-09-12T20:08:11.866Z,23.81
2022-09-12T20:10:15.375Z,23.71
2022-09-12T20:12:16.934Z,23.64
2022-09-12T20:14:18.581Z,23.59
2022-09-12T20:16:23.116Z,23.56
2022-09-12T20:18:24.887Z,23.56
2022-09-12T20:20:26.534Z,23.50
2022-09-12T20:22:28.070Z,23.45
2022-09-12T20:24:30.281Z,23.42
2022-09-12T20:26:33.732Z,23.38
2022-09-12T20:28:35.463Z,23.45
2022-09-12T20:30:37.066Z,23.41
2022-09-12T20:32:38.609Z,23.40
2022-09-12T20:34:40.467Z,23.35
2022-09-12T20:36:42.189Z,23.28
2022-09-12T20:38:47.908Z,23.24
2022-09-12T20:40:49.454Z,23.20
2022-09-12T20:42:52.817Z,23.15
2022-09-12T20:44:54.388Z,23.13
2022-09-12T20:46:56.102Z,23.15
2022-09-12T20:48:58.052Z,23.04
2022-09-12T20:50:59.740Z,23.04
2022-09-12T20:53:01.324Z,22.99
2022-09-12T20:55:02.992Z,22.95
2022-09-12T20:57:04.594Z,22.88
2022-09-12T20:59:09.692Z,22.91
2022-09-12T21:01:12.144Z,22.88
2022-09-12T21:03:14.031Z,22.86
2022-09-12T21:05:16.179Z,22.84
2022-09-12T21:07:17.769Z,22.82
2022-09-12T21:09:19.308Z,22.87
2022-09-12T21:11:20.925Z,22.77
2022-09-12T21:13:22.469Z,22.82
2022-09-12T21:15:25.473Z,22.80
2022-09-12T21:17:26.973Z,22.73
2022-09-12T21:19:28.507Z,22.67
2022-09-12T21:21:31.642Z,22.67
2022-09-12T21:23:33.677Z,22.71
2022-09-12T21:25:35.182Z,22.63
2022-09-12T21:27:36.737Z,22.60
2022-09-12T21:29:38.451Z,22.56
2022-09-12T21:31:42.676Z,22.57
2022-09-12T21:33:44.224Z,22.59
2022-09-12T21:35:45.875Z,22.58
2022-09-12T21:37:47.482Z,22.58
2022-09-12T21:39:49.123Z,22.55
2022-09-12T21:41:50.673Z,22.53
2022-09-12T21:43:52.188Z,22.48
2022-09-12T21:45:57.418Z,22.44
2022-09-12T21:48:00.952Z,22.48
2022-09-12T21:50:02.457Z,22.52
2022-09-12T21:52:04.061Z,22.49
2022-09-12T21:54:05.838Z,22.44
2022-09-12T21:56:08.813Z,22.47
2022-09-12T21:58:10.519Z,22.46
2022-09-12T22:00:17.572Z,22.42
2022-09-12T22:02:19.524Z,22.42
2022-09-12T22:04:22.686Z,22.41
2022-09-12T22:06:24.163Z,22.41
2022-09-12T22:08:26.438Z,22.40
2022-09-12T22:10:29.320Z,22.43
2022-09-12T22:12:30.860Z,22.47
2022-09-12T22:14:32.328Z,22.45
2022-09-12T22:16:33.922Z,22.42
2022-09-12T22:18:36.512Z,22.39
2022-09-12T22:20:39.316Z,22.38
2022-09-12T22:22:43.681Z,22.35
2022-09-12T22:24:45.534Z,22.31
2022-09-12T22:26:47.392Z,22.28
2022-09-12T22:28:49.386Z,22.21
2022-09-12T22:30:52.273Z,22.24
2022-09-12T22:32:54.027Z,22.25
2022-09-12T22:34:55.655Z,22.23
2022-09-12T22:36:58.540Z,22.21
2022-09-12T22:39:00.312Z,22.16
2022-09-12T22:41:06.320Z,22.18
2022-09-12T22:43:07.812Z,22.18
2022-09-12T22:45:10.063Z,22.09
2022-09-12T22:47:11.615Z,22.04
2022-09-12T22:49:13.108Z,21.96
2022-09-12T22:51:14.625Z,21.92
2022-09-12T22:53:17.481Z,21.91
2022-09-12T22:55:19.016Z,21.92
2022-09-12T22:57:20.537Z,21.93
2022-09-12T22:59:22.025Z,21.88
2022-09-12T23:01:23.519Z,21.86
2022-09-12T23:03:25.090Z,21.92
2022-09-12T23:05:26.659Z,21.94
2022-09-12T23:07:28.273Z,21.89
2022-09-12T23:09:35.361Z,21.84
2022-09-12T23:11:37.282Z,21.79
2022-09-12T23:13:41.005Z,21.74
2022-09-12T23:15:42.515Z,21.70
2022-09-12T23:17:44.013Z,21.70
2022-09-12T23:19:45.677Z,21.65
2022-09-12T23:21:48.529Z,21.68
2022-09-12T23:23:50.700Z,21.68
2022-09-12T23:26:03.158Z,21.65
2022-09-12T23:28:04.631Z,21.62
2022-09-12T23:30:07.157Z,21.62
2022-09-12T23:32:08.687Z,21.67
2022-09-12T23:34:10.239Z,21.68
2022-09-12T23:36:13.204Z,21.64
2022-09-12T23:38:14.887Z,21.65
2022-09-12T23:40:16.459Z,21.58
2022-09-12T23:42:19.312Z,21.60
2022-09-12T23:44:20.804Z,21.60
2022-09-12T23:46:23.401Z,21.62
2022-09-12T23:48:25.526Z,21.56
2022-09-12T23:50:27.309Z,21.58
2022-09-12T23:52:30.138Z,21.53
2022-09-12T23:54:31.662Z,21.51
2022-09-12T23:56:33.130Z,21.44
2022-09-12T23:58:36.075Z,21.48
